Eau Claire, WI (54703)

9:07 AM CST on December 05, 2016 (GMT -0600)
Rowe St. & Cornell St. | | Change Station
Active Advisory: Special Statement Active Notice: Local Storm Report

Elev 849 ft 44.84 °N, 91.49 °W | Updated 0 second ago

Light Freezing Fog
Freezing Fog
31.3 °F
Feels Like 31 °F
N
2.2
Wind Variable Wind from NNW
Gusts 6.0 mph

Today
High -- | Low -- °F
--% Chance of Precip.
Yesterday
High -- | Low -- °F
Precip. -- in
Pressure 29.86 in
Visibility 0.5 miles
Clouds
Windchill 31 °F
Dew Point 31 °F
Humidity 99%
Rainfall 0.00 in
Snow Depth Not available.
7:28 AM 4:25 PM
Waxing Crescent, 32% visible
METAR KEAU 051456Z 13004KT 1/2SM FZFG VV002 M01/M01 A2983 RMK AO2 SLP112 I1001 I3002 T10061006 53001
Pressure 29.86 in
Visibility 0.5 miles
Clouds
Windchill 31 °F
Dew Point 31 °F
Humidity 99%
Rainfall 0.00 in
Snow Depth Not available.
7:28 AM 4:25 PM
Waxing Crescent, 32% visible
METAR KEAU 051456Z 13004KT 1/2SM FZFG VV002 M01/M01 A2983 RMK AO2 SLP112 I1001 I3002 T10061006 53001

10-Day Weather Forecast

Almanac

Astronomy

Dec. 05, 2016 Rise Set
Actual Time
Civil Twilight
Nautical Twilight
Astronomical Twilight
Moon
Length of Visible Light
Length of Day
Tomorrow will be .
, % of the Moon is Illuminated

Today's Extremes

State Highs State Lows

Community

WunderPhotos

Upload Photos

1,955,787 photos uploaded!

WunderBlog® & News

Nearby

Air Quality

  Air Quality AQ Index Pollutant
Not available.

Snow Depth

Station Depth Elevation

Earthquake Activity

City Distance Mag. Time & Date
Minimum magnitude displayed is 2.5.

Coastal Water Temperatures

Place Temperature

Stations

Nearby Weather Stations

Station Location Temp. Windchill Dew Point Humidity Wind Precip. Elev Updated Type
                   

Watches & Warnings

Special Statement
Issued: 9:01 AM CST Dec. 5, 2016 – National Weather Service

... Areas of dense freezing fog this morning...

Dense freezing fog formed overnight and continues this morning
over portions of western Wisconsin. Visibilities of less than 1/4
mile have been reported. Slick spots due to frost are also
possible. Expect the freezing fog to continue through the morning
hours with an improvement by afternoon.


Borghoff


901 am CST Mon Dec 5 2016

... Areas of dense freezing fog this morning...

Dense freezing fog formed overnight and continues this morning
over portions of western Wisconsin. Visibilities of less than 1/4
mile have been reported. Slick spots due to frost are also
possible. Expect the freezing fog to continue through the morning
hours with an improvement by afternoon.


Borghoff

901 am CST Mon Dec 5 2016

... Areas of dense freezing fog this morning...

Dense freezing fog formed overnight and continues this morning
over portions of western Wisconsin. Visibilities of less than 1/4
mile have been reported. Slick spots due to frost are also
possible. Expect the freezing fog to continue through the morning
hours with an improvement by afternoon.


Borghoff